Terminal Aerodrome Forecast
Issued by NWS Charleston, WV

Current Version | Previous Version | Text Only | Print | Product List | Glossary Off
Versions: 1 2 3 4 5 6 7 8 9 10 11 12 13 14 15 16 17 18 19 20 21 22 23 24

651
FTUS41 KRLX 260538
TAFBKW
TAF
KBKW 260538Z 2606/2706 28012G18KT P6SM OVC008
      TEMPO 2606/2608 BKN010
     FM261300 28011G17KT P6SM BKN010
     FM261500 28011G17KT P6SM BKN020
     FM261600 28012G18KT P6SM SCT025
     FM262000 28012G18KT P6SM SCT150
     FM262200 28009KT P6SM FEW200
     FM270300 24007KT P6SM SCT150=

USA.gov is the U.S. government's official web portal to all federal, state and local government web resources and services.